Time;durP1;ratioP1;P1;durP2;ratioP2;P2;SDS_P1;SDS_P2;PMS_P1;PMS_P2;Temp;Humidity;BMP_temperature;BMP_pressure;BME280_temperature;BME280_humidity;BME280_pressure;Samples;Min_cycle;Max_cycle;Signal;HPM_P1;HPM_P2
2021/07/19 00:02:44;;;;;;;6.83;3.33;;;17.10;99.90;;;;;;5052680;28;20424;-78
2021/07/19 00:08:14;;;;;;;5.27;3.90;;;;;;;;;;5053789;28;20717;-78
2021/07/19 00:10:40;;;;;;;4.43;3.50;;;;;;;;;;5052496;28;20412;-79
2021/07/19 00:13:06;;;;;;;3.63;3.33;;;;;;;;;;5053370;28;20489;-79
2021/07/19 00:15:32;;;;;;;6.07;3.77;;;;;;;;;;5052404;28;20428;-79
2021/07/19 00:17:59;;;;;;;6.07;3.70;;;;;;;;;;5053721;28;20375;-78
2021/07/19 00:20:30;;;;;;;6.83;3.57;;;16.60;99.90;;;;;;5052865;28;20404;-78
2021/07/19 00:22:56;;;;;;;6.13;3.10;;;;;;;;;;5053633;28;20387;-79
2021/07/19 00:25:24;;;;;;;7.63;3.60;;;16.70;99.90;;;;;;5053476;28;20463;-79
2021/07/19 00:27:54;;;;;;;3.30;3.00;;;;;;;;;;5036112;28;20780;-79
2021/07/19 00:30:20;;;;;;;6.40;3.20;;;;;;;;;;5036512;28;20412;-80
2021/07/19 00:32:46;;;;;;;4.77;3.40;;;17.00;99.90;;;;;;5053007;28;20430;-78
2021/07/19 00:35:12;;;;;;;4.60;3.70;;;16.80;99.90;;;;;;5052048;28;20555;-78
2021/07/19 00:37:38;;;;;;;4.53;3.70;;;16.80;99.90;;;;;;5053333;28;20188;-79
2021/07/19 00:40:39;;;;;;;6.50;4.00;;;16.70;99.90;;;;;;5053433;28;20177;-78
2021/07/19 00:43:07;;;;;;;5.40;4.00;;;16.50;99.90;;;;;;5051710;28;20764;-78
2021/07/19 00:45:33;;;;;;;11.80;4.40;;;16.50;99.90;;;;;;5052253;28;20418;-77
2021/07/19 00:48:00;;;;;;;6.90;3.50;;;16.50;99.90;;;;;;5053153;28;20390;-78
2021/07/19 00:50:29;;;;;;;4.67;4.00;;;16.40;99.90;;;;;;5051981;28;20401;-79
2021/07/19 00:52:57;;;;;;;5.53;4.23;;;16.40;99.90;;;;;;5052990;28;20487;-77
2021/07/19 00:55:33;;;;;;;8.50;4.30;;;16.30;99.90;;;;;;5053234;28;20868;-78
2021/07/19 00:58:00;;;;;;;4.73;3.80;;;16.30;99.90;;;;;;5053137;28;20442;-78
2021/07/19 01:00:27;;;;;;;8.93;4.63;;;16.30;99.90;;;;;;5053089;28;20430;-78
2021/07/19 01:02:54;;;;;;;6.53;5.03;;;16.30;99.90;;;;;;5052791;28;20395;-78
2021/07/19 01:05:20;;;;;;;6.77;5.80;;;16.30;99.90;;;;;;5053016;28;20418;-78
2021/07/19 01:07:47;;;;;;;5.80;4.40;;;16.30;99.90;;;;;;5052938;28;20391;-78
2021/07/19 01:10:17;;;;;;;5.00;4.17;;;16.30;99.90;;;;;;5052911;28;20420;-78
2021/07/19 01:12:48;;;;;;;5.03;4.53;;;16.20;99.90;;;;;;5052754;28;20460;-76
2021/07/19 01:15:14;;;;;;;4.67;4.20;;;;;;;;;;5051590;28;20948;-78
2021/07/19 01:17:41;;;;;;;8.03;4.93;;;16.10;99.90;;;;;;5052889;28;20389;-77
2021/07/19 01:20:07;;;;;;;6.27;5.07;;;16.10;99.90;;;;;;5052833;28;20824;-78
2021/07/19 01:23:03;;;;;;;8.50;5.13;;;16.00;99.90;;;;;;5052876;28;20416;-77
2021/07/19 01:26:06;;;;;;;9.63;5.30;;;15.90;99.90;;;;;;5051643;28;20771;-78
2021/07/19 01:28:46;;;;;;;5.67;5.10;;;15.90;99.90;;;;;;5052932;28;20824;-78
2021/07/19 01:31:17;;;;;;;8.30;4.97;;;15.80;99.90;;;;;;5055191;28;20371;-77
2021/07/19 01:33:48;;;;;;;8.30;5.30;;;15.80;99.90;;;;;;5056370;28;20437;-77
2021/07/19 01:36:17;;;;;;;12.40;5.67;;;15.80;99.90;;;;;;5056757;28;20796;-77
2021/07/19 01:38:43;;;;;;;7.67;5.10;;;15.70;99.90;;;;;;5056785;28;20451;-77
2021/07/19 01:41:11;;;;;;;8.90;4.60;;;15.70;99.90;;;;;;5056760;28;20412;-78
2021/07/19 01:43:37;;;;;;;7.40;5.27;;;15.70;99.90;;;;;;5056443;28;20423;-78
2021/07/19 01:46:06;;;;;;;9.93;5.50;;;15.70;99.90;;;;;;5056448;28;20443;-78
2021/07/19 01:48:33;;;;;;;7.10;5.50;;;15.70;99.90;;;;;;5038512;28;20817;-77
2021/07/19 01:51:00;;;;;;;7.73;5.60;;;15.70;99.90;;;;;;5055250;28;20402;-78
2021/07/19 01:53:31;;;;;;;8.07;5.77;;;15.60;99.90;;;;;;5056074;28;20459;-78
2021/07/19 01:55:58;;;;;;;8.80;5.70;;;15.50;99.90;;;;;;5054996;28;20418;-77
2021/07/19 01:58:24;;;;;;;9.67;6.17;;;15.50;99.90;;;;;;5056309;28;20420;-77
2021/07/19 02:00:50;;;;;;;7.03;5.43;;;15.50;99.90;;;;;;5055233;28;20477;-78
2021/07/19 02:03:22;;;;;;;7.77;5.73;;;15.40;99.90;;;;;;5056076;28;20478;-77
2021/07/19 02:05:50;;;;;;;9.67;6.57;;;15.40;99.90;;;;;;5056251;28;20418;-78
2021/07/19 02:08:23;;;;;;;8.83;5.40;;;15.40;99.90;;;;;;5054772;28;20439;-77
2021/07/19 02:10:58;;;;;;;10.10;6.50;;;15.40;99.90;;;;;;4997913;28;20433;-78
2021/07/19 02:13:34;;;;;;;12.67;6.50;;;15.40;99.90;;;;;;5013818;28;20937;-77
2021/07/19 02:16:04;;;;;;;14.00;6.50;;;15.40;99.90;;;;;;5014304;28;20798;-78
2021/07/19 02:18:32;;;;;;;6.60;6.00;;;15.40;99.90;;;;;;5014076;28;20446;-77
2021/07/19 02:21:01;;;;;;;9.37;6.23;;;15.30;99.90;;;;;;5014067;28;20420;-78
2021/07/19 02:23:28;;;;;;;9.60;6.83;;;15.30;99.90;;;;;;4997166;28;20916;-77
2021/07/19 02:25:59;;;;;;;7.40;6.50;;;15.30;99.90;;;;;;5014047;28;20420;-78
2021/07/19 02:28:25;;;;;;;9.43;7.07;;;15.20;99.90;;;;;;5014041;28;20445;-78
2021/07/19 02:30:53;;;;;;;8.37;7.07;;;15.20;99.90;;;;;;5013792;28;20453;-77
2021/07/19 02:33:21;;;;;;;10.53;6.77;;;15.20;99.90;;;;;;5013510;28;20481;-78
2021/07/19 02:35:51;;;;;;;8.10;6.17;;;15.30;99.90;;;;;;4997549;28;20453;-77
2021/07/19 02:38:18;;;;;;;8.73;6.73;;;15.20;99.90;;;;;;5013760;28;20397;-79
2021/07/19 02:40:47;;;;;;;8.10;6.20;;;15.20;99.90;;;;;;5016505;28;20525;-77
2021/07/19 02:43:14;;;;;;;8.70;6.93;;;15.10;99.90;;;;;;5052933;28;20430;-77
2021/07/19 02:45:44;;;;;;;7.83;6.90;;;15.10;99.90;;;;;;5055342;28;20448;-77
2021/07/19 02:48:13;;;;;;;10.23;7.03;;;15.20;99.90;;;;;;5055741;28;20729;-77
2021/07/19 02:50:54;;;;;;;11.23;7.00;;;15.20;99.90;;;;;;5055278;28;20865;-77
2021/07/19 02:53:22;;;;;;;15.67;7.80;;;15.10;99.90;;;;;;5055246;28;20438;-78
2021/07/19 02:55:49;;;;;;;10.57;6.80;;;15.20;99.90;;;;;;5053542;28;20447;-78
2021/07/19 02:58:23;;;;;;;8.13;6.80;;;15.20;99.90;;;;;;5055119;28;20733;-78
2021/07/19 03:00:50;;;;;;;10.57;8.23;;;15.10;99.90;;;;;;5055181;28;20411;-78
2021/07/19 03:03:21;;;;;;;11.53;7.53;;;15.20;99.90;;;;;;5054885;28;20420;-77
2021/07/19 03:06:11;;;;;;;13.80;7.20;;;15.20;99.90;;;;;;5055148;28;20454;-77
2021/07/19 03:08:40;;;;;;;12.17;8.03;;;15.10;99.90;;;;;;5031758;28;20428;-78
2021/07/19 03:11:10;;;;;;;13.43;7.37;;;15.10;99.90;;;;;;5032709;28;20420;-78
2021/07/19 03:13:37;;;;;;;13.37;6.93;;;15.10;99.90;;;;;;5032561;28;20446;-77
2021/07/19 03:16:05;;;;;;;11.37;8.23;;;15.00;99.90;;;;;;5016321;28;20793;-77
2021/07/19 03:18:36;;;;;;;10.63;6.93;;;15.00;99.90;;;;;;5032890;28;20542;-77
2021/07/19 03:21:04;;;;;;;13.17;7.30;;;14.90;99.90;;;;;;5032715;28;20871;-77
2021/07/19 03:23:33;;;;;;;8.80;7.90;;;15.00;99.90;;;;;;5032424;28;20937;-77
2021/07/19 03:26:03;;;;;;;12.80;7.83;;;15.10;99.90;;;;;;5016092;28;20486;-77
2021/07/19 03:28:29;;;;;;;12.50;7.67;;;15.00;99.90;;;;;;5032777;28;20486;-77
2021/07/19 03:30:59;;;;;;;12.33;6.30;;;14.90;99.90;;;;;;5032587;28;20413;-77
2021/07/19 03:33:25;;;;;;;8.73;7.00;;;14.80;99.90;;;;;;5035944;28;20840;-77
2021/07/19 03:35:55;;;;;;;12.70;6.70;;;14.80;99.90;;;;;;5054436;28;20449;-77
2021/07/19 03:38:41;;;;;;;7.27;6.30;;;14.80;99.90;;;;;;5054762;28;20776;-78
2021/07/19 03:41:07;;;;;;;7.90;7.10;;;14.80;99.90;;;;;;5052897;28;20464;-79
2021/07/19 03:43:34;;;;;;;15.13;6.93;;;14.80;99.90;;;;;;5054092;28;20443;-77
2021/07/19 03:46:01;;;;;;;9.00;6.70;;;14.80;99.90;;;;;;5054243;28;20442;-79
2021/07/19 03:48:27;;;;;;;10.13;7.07;;;14.80;99.90;;;;;;5053127;28;20398;-79
2021/07/19 03:50:54;;;;;;;9.00;7.13;;;14.80;99.90;;;;;;5054492;28;20411;-78
2021/07/19 03:53:20;;;;;;;7.80;6.60;;;14.70;99.90;;;;;;5052414;28;20466;-78
2021/07/19 03:55:48;;;;;;;10.90;7.40;;;14.70;99.90;;;;;;5054408;28;20463;-77
2021/07/19 03:58:15;;;;;;;7.90;6.60;;;14.80;99.90;;;;;;5054101;28;20408;-77
2021/07/19 04:00:42;;;;;;;10.33;7.17;;;14.80;99.90;;;;;;5052843;28;20514;-77
2021/07/19 04:03:22;;;;;;;9.20;7.00;;;;;;;;;;5053978;28;20415;-77
2021/07/19 04:06:00;;;;;;;10.60;7.43;;;14.80;99.90;;;;;;5052767;28;20773;-77
2021/07/19 04:08:27;;;;;;;10.03;7.57;;;;;;;;;;5053923;28;20396;-77
2021/07/19 04:11:00;;;;;;;8.27;7.47;;;14.70;99.90;;;;;;5053754;28;20497;-78
2021/07/19 04:13:28;;;;;;;12.07;7.77;;;14.80;99.90;;;;;;5052127;28;20449;-77
2021/07/19 04:15:54;;;;;;;8.90;6.20;;;14.80;99.90;;;;;;5053699;28;20399;-77
2021/07/19 04:18:23;;;;;;;12.00;7.63;;;14.70;99.90;;;;;;5053671;28;20440;-76
2021/07/19 04:20:53;;;;;;;11.03;8.20;;;14.70;99.90;;;;;;5053782;28;20581;-77
2021/07/19 04:23:19;;;;;;;11.80;7.37;;;14.70;99.90;;;;;;5053000;28;20411;-77
2021/07/19 04:25:49;;;;;;;13.87;7.90;;;14.60;99.90;;;;;;5053382;28;20908;-77
2021/07/19 04:28:48;;;;;;;14.37;8.13;;;14.50;99.90;;;;;;5031164;28;20390;-77
2021/07/19 04:31:16;;;;;;;11.20;8.30;;;14.70;99.90;;;;;;5031585;28;20391;-77
2021/07/19 04:33:50;;;;;;;8.50;7.40;;;14.60;99.90;;;;;;5030872;28;20467;-76
2021/07/19 04:36:17;;;;;;;12.57;7.10;;;14.60;99.90;;;;;;5031517;28;20414;-76
2021/07/19 04:38:46;;;;;;;11.47;7.43;;;14.70;99.90;;;;;;5013186;28;20425;-77
2021/07/19 04:41:11;;;;;;;11.87;8.43;;;14.70;99.90;;;;;;5014806;28;20478;-76
2021/07/19 04:46:17;;;;;;;13.53;8.97;;;14.90;99.90;;;;;;5254523;22;20491;-77
2021/07/19 04:48:44;;;;;;;17.40;8.57;;;14.90;99.90;;;;;;5052082;28;20771;-77
2021/07/19 04:51:16;;;;;;;17.20;9.13;;;15.00;99.90;;;;;;5053431;28;20966;-77
2021/07/19 04:53:44;;;;;;;13.70;9.80;;;15.10;99.90;;;;;;5031708;28;20468;-76
2021/07/19 04:56:10;;;;;;;15.57;9.17;;;15.20;99.90;;;;;;5031308;28;20447;-77
2021/07/19 04:58:37;;;;;;;14.90;9.37;;;15.30;99.90;;;;;;5014322;28;20431;-76
2021/07/19 05:01:07;;;;;;;10.60;7.70;;;15.40;99.90;;;;;;5031212;28;20444;-77
2021/07/19 05:03:45;;;;;;;12.07;8.40;;;15.50;99.90;;;;;;5030978;28;20431;-77
2021/07/19 05:06:12;;;;;;;11.93;8.50;;;15.50;99.90;;;;;;5030508;28;20448;-76
2021/07/19 05:08:40;;;;;;;14.53;9.00;;;15.60;99.90;;;;;;5030995;28;20459;-77
2021/07/19 05:11:06;;;;;;;9.87;8.20;;;15.70;99.90;;;;;;5014513;28;20878;-77
2021/07/19 05:13:32;;;;;;;15.30;8.83;;;15.70;99.90;;;;;;5030510;28;20472;-76
2021/07/19 05:15:58;;;;;;;10.83;8.87;;;15.80;99.90;;;;;;5030754;28;20502;-77
2021/07/19 05:18:24;;;;;;;12.17;8.10;;;15.80;99.90;;;;;;5031017;28;20546;-77
2021/07/19 05:20:50;;;;;;;9.87;7.80;;;15.80;99.90;;;;;;5014608;28;20470;-76
2021/07/19 05:23:25;;;;;;;9.97;8.70;;;15.90;99.90;;;;;;5030576;28;20424;-76
2021/07/19 05:25:52;;;;;;;11.70;8.40;;;15.90;99.90;;;;;;5052774;28;20463;-77
2021/07/19 05:28:18;;;;;;;10.93;8.03;;;16.00;99.90;;;;;;5051729;28;20772;-77
2021/07/19 05:30:46;;;;;;;10.63;8.50;;;16.00;99.90;;;;;;5034725;28;20416;-77
2021/07/19 05:33:13;;;;;;;11.23;8.57;;;16.00;99.90;;;;;;5052542;28;20487;-76
2021/07/19 05:35:47;;;;;;;10.77;8.50;;;16.20;99.90;;;;;;5052680;28;20581;-77
2021/07/19 05:38:13;;;;;;;11.97;7.90;;;16.10;99.90;;;;;;5051314;28;20484;-78
2021/07/19 05:40:40;;;;;;;9.60;8.30;;;16.20;99.90;;;;;;5052781;28;20432;-77
2021/07/19 05:43:06;;;;;;;12.00;8.30;;;16.30;99.90;;;;;;5052402;28;20420;-76
2021/07/19 05:45:32;;;;;;;9.23;8.00;;;16.20;99.90;;;;;;5052624;28;20641;-76
2021/07/19 05:47:58;;;;;;;12.87;7.83;;;16.20;99.90;;;;;;5051660;28;20231;-76
2021/07/19 05:50:28;;;;;;;12.30;8.80;;;16.30;99.90;;;;;;5050794;28;21039;-77
2021/07/19 05:52:54;;;;;;;12.20;8.20;;;16.30;99.90;;;;;;5052298;28;20463;-77
2021/07/19 05:55:20;;;;;;;11.03;8.63;;;16.30;99.90;;;;;;5051365;28;20431;-76
2021/07/19 05:57:46;;;;;;;12.97;9.17;;;16.30;99.90;;;;;;5051371;28;20901;-78
2021/07/19 06:00:15;;;;;;;11.30;7.30;;;16.40;99.90;;;;;;5052413;28;20208;-78
2021/07/19 06:02:49;;;;;;;12.70;9.00;;;16.50;99.90;;;;;;5052238;28;20181;-77
2021/07/19 06:05:15;;;;;;;10.17;7.67;;;16.30;99.90;;;;;;5052395;28;20439;-77
2021/07/19 06:07:41;;;;;;;8.90;7.33;;;16.40;99.90;;;;;;5050797;28;20924;-76
2021/07/19 06:10:09;;;;;;;15.97;8.70;;;16.50;99.90;;;;;;5052511;28;20189;-78
2021/07/19 06:12:35;;;;;;;12.17;8.10;;;16.60;99.90;;;;;;5052167;28;20438;-77
2021/07/19 06:15:03;;;;;;;13.97;9.13;;;16.60;99.90;;;;;;5052085;28;20427;-77
2021/07/19 06:17:30;;;;;;;11.77;8.33;;;;;;;;;;5053316;28;20435;-78
2021/07/19 06:19:55;;;;;;;10.73;7.80;;;16.70;99.90;;;;;;5055907;28;20432;-77
2021/07/19 06:22:21;;;;;;;13.93;8.97;;;16.90;99.90;;;;;;5055674;28;20417;-77
2021/07/19 06:24:50;;;;;;;11.97;8.63;;;17.10;99.90;;;;;;5055362;28;20221;-77
2021/07/19 06:27:17;;;;;;;11.77;9.07;;;;;;;;;;5055741;28;20252;-77
2021/07/19 06:29:44;;;;;;;12.00;9.43;;;;;;;;;;5055677;28;20408;-77
2021/07/19 06:32:09;;;;;;;13.30;9.93;;;17.30;99.90;;;;;;5054481;28;20970;-79
2021/07/19 06:34:35;;;;;;;13.43;10.30;;;17.50;99.90;;;;;;5053669;28;20454;-77
2021/07/19 06:37:02;;;;;;;12.73;9.90;;;17.30;99.90;;;;;;5054428;28;20189;-77
2021/07/19 06:39:27;;;;;;;15.37;9.43;;;17.60;99.90;;;;;;5055611;28;20181;-77
2021/07/19 06:41:53;;;;;;;13.47;10.07;;;17.70;99.90;;;;;;5054369;28;20909;-77
2021/07/19 06:44:18;;;;;;;15.53;10.50;;;17.50;99.90;;;;;;5053845;28;20193;-77
2021/07/19 06:46:45;;;;;;;11.07;9.80;;;;;;;;;;5054119;28;20178;-77
2021/07/19 06:49:11;;;;;;;13.47;9.60;;;17.70;99.90;;;;;;5055425;28;20631;-77
2021/07/19 06:51:37;;;;;;;13.43;8.60;;;17.80;99.90;;;;;;5054099;28;20402;-77
2021/07/19 06:54:02;;;;;;;16.13;9.73;;;17.80;99.90;;;;;;5054849;28;20282;-77
2021/07/19 06:56:31;;;;;;;13.57;10.20;;;;;;;;;;5055153;28;20423;-77
2021/07/19 06:58:57;;;;;;;11.80;8.60;;;17.70;99.90;;;;;;5055146;28;20182;-77
2021/07/19 07:01:23;;;;;;;12.27;8.23;;;17.90;99.90;;;;;;5053854;28;20397;-77
2021/07/19 07:03:49;;;;;;;9.53;8.20;;;;;;;;;;5054974;28;20178;-77
2021/07/19 07:06:15;;;;;;;12.73;7.43;;;;;;;;;;5053899;28;20181;-77
2021/07/19 07:08:41;;;;;;;12.10;6.90;;;;;;;;;;5054918;28;20420;-77
2021/07/19 07:11:08;;;;;;;9.30;6.90;;;;;;;;;;5053590;28;20441;-77
2021/07/19 07:13:34;;;;;;;10.20;7.10;;;;;;;;;;5053360;28;20445;-77
2021/07/19 07:16:00;;;;;;;9.23;6.23;;;;;;;;;;5054827;28;20431;-79
2021/07/19 07:18:28;;;;;;;10.83;7.20;;;;;;;;;;5054742;28;20383;-78
2021/07/19 07:20:54;;;;;;;10.97;7.80;;;;;;;;;;5054641;28;20399;-78
2021/07/19 07:23:20;;;;;;;8.33;7.10;;;;;;;;;;5054537;28;20416;-78
2021/07/19 07:25:47;;;;;;;8.30;6.70;;;;;;;;;;5054582;28;20439;-79
2021/07/19 07:28:13;;;;;;;11.33;6.60;;;;;;;;;;5036466;28;20445;-77
2021/07/19 07:30:42;;;;;;;11.10;7.60;;;;;;;;;;5054437;28;20419;-77
2021/07/19 07:33:08;;;;;;;10.33;7.27;;;;;;;;;;5054062;28;20449;-79
2021/07/19 07:35:40;;;;;;;7.43;6.63;;;;;;;;;;5054355;28;20436;-78
2021/07/19 07:38:06;;;;;;;10.80;7.10;;;;;;;;;;5054526;28;20450;-78
2021/07/19 07:40:35;;;;;;;9.57;7.03;;;;;;;;;;5053153;28;20408;-77
2021/07/19 07:43:01;;;;;;;8.10;6.63;;;;;;;;;;5053897;28;20390;-77
2021/07/19 07:45:29;;;;;;;9.27;6.70;;;;;;;;;;5052824;28;20444;-78
2021/07/19 07:48:00;;;;;;;11.90;7.20;;;;;;;;;;5052434;28;20451;-78
2021/07/19 07:50:26;;;;;;;8.67;7.20;;;;;;;;;;5053076;28;20412;-78
2021/07/19 07:52:55;;;;;;;9.07;7.47;;;;;;;;;;5052402;28;20471;-78
2021/07/19 07:55:21;;;;;;;7.93;6.83;;;;;;;;;;5053979;28;20402;-77
2021/07/19 07:57:47;;;;;;;7.50;6.70;;;;;;;;;;5052935;28;20455;-78
2021/07/19 08:00:18;;;;;;;9.80;7.93;;;;;;;;;;5054059;28;20409;-78
2021/07/19 08:02:44;;;;;;;9.40;7.33;;;;;;;;;;5053713;28;20431;-78
2021/07/19 08:05:14;;;;;;;9.10;8.00;;;;;;;;;;5052564;28;20823;-77
2021/07/19 08:07:40;;;;;;;14.97;8.30;;;;;;;;;;5052549;28;20395;-78
2021/07/19 08:10:07;;;;;;;8.07;7.20;;;;;;;;;;5052551;28;20382;-78
2021/07/19 08:12:34;;;;;;;9.90;7.53;;;;;;;;;;5053490;28;20423;-78
2021/07/19 08:15:03;;;;;;;8.33;7.40;;;;;;;;;;5052038;28;20424;-80
2021/07/19 08:17:29;;;;;;;7.80;7.00;;;;;;;;;;5053762;28;20408;-78
2021/07/19 08:19:58;;;;;;;10.73;7.67;;;;;;;;;;5053695;28;20436;-77
2021/07/19 08:22:27;;;;;;;10.07;8.07;;;;;;;;;;5053592;28;20477;-78
2021/07/19 08:24:58;;;;;;;8.73;7.83;;;;;;;;;;5053253;28;20428;-78
2021/07/19 08:27:25;;;;;;;11.37;7.43;;;;;;;;;;5052182;28;20824;-79
2021/07/19 08:29:51;;;;;;;8.97;7.87;;;;;;;;;;5053725;28;20487;-79
2021/07/19 08:32:17;;;;;;;9.70;7.97;;;;;;;;;;5053531;28;20451;-78
2021/07/19 08:35:02;;;;;;;9.83;7.77;;;;;;;;;;5052863;28;20467;-79
2021/07/19 08:37:31;;;;;;;10.50;8.40;;;;;;;;;;5030724;28;20431;-78
2021/07/19 08:40:00;;;;;;;9.90;8.40;;;;;;;;;;5030716;28;20499;-77
2021/07/19 08:42:30;;;;;;;9.80;7.43;;;;;;;;;;5031675;28;20409;-78
2021/07/19 08:44:58;;;;;;;10.40;8.60;;;;;;;;;;5030789;28;20449;-77
2021/07/19 08:47:24;;;;;;;8.50;7.70;;;;;;;;;;5031188;28;20449;-78
2021/07/19 08:49:50;;;;;;;11.33;7.87;;;;;;;;;;5031437;28;20459;-78
2021/07/19 08:52:17;;;;;;;10.60;8.73;;;;;;;;;;5031241;28;20423;-78
2021/07/19 08:54:47;;;;;;;10.53;8.23;;;;;;;;;;5014354;28;20542;-78
2021/07/19 08:57:14;;;;;;;9.63;8.10;;;;;;;;;;5031197;28;20409;-77
2021/07/19 08:59:42;;;;;;;11.80;8.40;;;;;;;;;;5030825;28;20413;-78
2021/07/19 09:02:08;;;;;;;9.37;7.87;;;;;;;;;;5030964;28;20443;-78
2021/07/19 09:04:37;;;;;;;11.13;7.80;;;;;;;;;;5030781;28;20450;-78
2021/07/19 09:07:06;;;;;;;8.67;7.77;;;;;;;;;;5031134;28;20383;-78
2021/07/19 09:09:33;;;;;;;12.27;9.07;;;;;;;;;;5051652;28;20432;-78
2021/07/19 09:12:04;;;;;;;9.90;8.60;;;21.30;99.90;;;;;;5053213;28;20437;-78
2021/07/19 09:14:33;;;;;;;9.17;7.67;;;21.40;99.90;;;;;;5052640;28;20525;-78
2021/07/19 09:16:59;;;;;;;9.47;7.93;;;21.10;99.90;;;;;;5053093;28;20400;-78
2021/07/19 09:19:27;;;;;;;17.17;8.10;;;21.40;99.90;;;;;;5052890;28;20909;-79
2021/07/19 09:22:03;;;;;;;10.27;8.93;;;21.10;99.90;;;;;;5052839;28;20404;-78
2021/07/19 09:24:36;;;;;;;11.87;8.00;;;21.30;99.90;;;;;;5052306;28;20423;-78
2021/07/19 09:27:04;;;;;;;10.30;8.50;;;;;;;;;;5052677;28;20450;-79
2021/07/19 09:29:36;;;;;;;12.20;8.60;;;;;;;;;;5052906;28;20415;-77
2021/07/19 09:32:06;;;;;;;9.73;8.63;;;21.80;99.90;;;;;;5052708;28;20403;-78
2021/07/19 09:34:33;;;;;;;9.73;7.77;;;;;;;;;;5052382;28;20517;-78
2021/07/19 09:37:03;;;;;;;15.63;10.20;;;21.90;99.90;;;;;;5052845;28;20908;-78
2021/07/19 09:39:53;;;;;;;12.37;9.77;;;21.30;99.90;;;;;;5052791;28;20415;-78
2021/07/19 09:42:21;;;;;;;12.23;9.23;;;21.40;99.90;;;;;;5068277;28;20489;-78
2021/07/19 09:44:52;;;;;;;12.63;9.73;;;21.50;99.90;;;;;;5052196;28;20434;-79
2021/07/19 09:47:18;;;;;;;15.23;11.53;;;21.50;99.90;;;;;;5052750;28;20420;-78
2021/07/19 09:49:51;;;;;;;13.77;11.13;;;20.90;99.90;;;;;;5052860;28;20412;-78
2021/07/19 09:52:16;;;;;;;14.53;12.50;;;21.10;99.90;;;;;;5054973;28;20922;-78
2021/07/19 09:54:46;;;;;;;14.87;13.27;;;21.30;99.90;;;;;;5054837;28;20471;-78
2021/07/19 09:57:13;;;;;;;16.67;12.67;;;21.60;99.90;;;;;;5056533;28;20201;-78
2021/07/19 09:59:53;;;;;;;14.87;13.10;;;21.90;99.90;;;;;;5056329;28;20454;-78
2021/07/19 10:02:43;;;;;;;14.33;11.50;;;;;;;;;;5056416;28;20908;-78
2021/07/19 10:05:10;;;;;;;14.90;12.50;;;;;;;;;;5056383;28;20790;-78
2021/07/19 10:07:46;;;;;;;13.57;12.13;;;;;;;;;;5056349;28;20740;-78
2021/07/19 10:10:16;;;;;;;14.33;12.17;;;;;;;;;;5056115;28;20411;-78
2021/07/19 10:12:42;;;;;;;13.20;11.80;;;;;;;;;;5056002;28;20503;-78
2021/07/19 10:15:12;;;;;;;15.83;13.77;;;;;;;;;;5054679;28;20801;-78
2021/07/19 10:17:39;;;;;;;13.17;11.50;;;;;;;;;;5056062;28;20491;-78
2021/07/19 10:20:06;;;;;;;16.23;12.33;;;;;;;;;;5055821;28;20412;-79
2021/07/19 10:22:33;;;;;;;14.10;11.33;;;;;;;;;;5054677;28;20416;-78
2021/07/19 10:24:59;;;;;;;14.70;12.20;;;;;;;;;;5055513;28;20428;-78
2021/07/19 10:27:27;;;;;;;14.43;12.93;;;;;;;;;;5054531;28;20428;-78
2021/07/19 10:29:55;;;;;;;18.13;12.87;;;;;;;;;;5055800;28;20423;-78
2021/07/19 10:32:23;;;;;;;15.53;12.70;;;;;;;;;;5055529;28;20835;-77
2021/07/19 10:34:51;;;;;;;12.70;11.23;;;;;;;;;;5055153;28;20512;-78
2021/07/19 10:37:30;;;;;;;12.80;11.50;;;;;;;;;;5055711;28;20400;-78
2021/07/19 10:39:58;;;;;;;14.80;13.20;;;;;;;;;;5055570;28;20400;-78
2021/07/19 10:42:41;;;;;;;15.83;13.50;;;;;;;;;;5055718;28;20832;-78
2021/07/19 10:45:09;;;;;;;16.03;13.43;;;;;;;;;;5055053;28;20451;-78
2021/07/19 10:47:46;;;;;;;13.57;12.23;;;;;;;;;;5054461;28;20426;-79
2021/07/19 10:50:17;;;;;;;15.10;13.60;;;;;;;;;;5054175;28;20828;-79
2021/07/19 10:52:50;;;;;;;16.20;11.83;;;;;;;;;;5055373;28;20416;-78
2021/07/19 10:55:32;;;;;;;13.07;11.63;;;;;;;;;;5055218;28;20442;-79
2021/07/19 10:58:05;;;;;;;13.13;11.80;;;;;;;;;;5055302;28;20408;-78
2021/07/19 11:00:40;;;;;;;13.20;11.33;;;;;;;;;;5055115;28;20781;-78
2021/07/19 11:03:18;;;;;;;14.63;12.80;;;;;;;;;;5054340;28;20396;-77
2021/07/19 11:05:47;;;;;;;15.60;12.60;;;;;;;;;;5053629;28;20424;-78
2021/07/19 11:11:13;;;;;;;18.93;12.20;;;;;;;;;;5055396;28;20423;-77
2021/07/19 11:13:40;;;;;;;17.17;12.57;;;;;;;;;;5054624;28;20466;-78
2021/07/19 11:16:17;;;;;;;19.23;13.43;;;;;;;;;;5054913;28;20478;-78
2021/07/19 11:18:53;;;;;;;14.70;12.50;;;;;;;;;;5053517;28;20416;-77
2021/07/19 11:21:26;;;;;;;14.50;13.10;;;23.40;99.90;;;;;;5054835;28;20491;-77
2021/07/19 11:23:53;;;;;;;18.17;12.00;;;23.60;99.90;;;;;;5054401;28;20486;-77
2021/07/19 11:26:24;;;;;;;14.13;12.73;;;23.20;99.90;;;;;;5054619;28;20452;-78
2021/07/19 11:28:56;;;;;;;17.63;12.87;;;23.20;99.90;;;;;;5053314;28;21041;-78
2021/07/19 11:31:37;;;;;;;27.97;13.63;;;23.30;99.90;;;;;;5054727;28;20506;-77
2021/07/19 11:34:05;;;;;;;14.40;12.60;;;23.10;99.90;;;;;;5053210;28;20453;-78
2021/07/19 11:36:33;;;;;;;13.80;11.97;;;22.80;99.90;;;;;;5054357;28;20412;-78
2021/07/19 11:39:01;;;;;;;13.70;11.80;;;23.30;99.90;;;;;;5054313;28;20495;-78
2021/07/19 11:41:30;;;;;;;18.27;12.93;;;23.40;99.90;;;;;;5054245;28;20404;-77
2021/07/19 11:43:57;;;;;;;14.03;12.47;;;23.00;99.90;;;;;;5053898;28;20412;-78
2021/07/19 11:46:40;;;;;;;17.27;14.37;;;23.20;99.90;;;;;;5054342;28;20523;-78
2021/07/19 11:49:10;;;;;;;15.40;12.90;;;23.20;99.90;;;;;;5054128;28;20420;-77
2021/07/19 11:51:39;;;;;;;14.77;13.17;;;23.10;99.90;;;;;;5054223;28;20411;-78
2021/07/19 11:54:05;;;;;;;15.20;12.77;;;23.30;99.90;;;;;;5052405;28;20460;-78
2021/07/19 11:56:31;;;;;;;15.83;13.57;;;23.30;99.90;;;;;;5054184;28;20423;-77
2021/07/19 11:59:02;;;;;;;15.73;12.37;;;23.20;99.90;;;;;;5053902;28;20415;-78
2021/07/19 12:01:32;;;;;;;39.07;17.10;;;23.20;99.90;;;;;;5052529;28;20412;-77
2021/07/19 12:04:01;;;;;;;18.53;15.50;;;23.30;99.90;;;;;;5053598;28;20429;-77
2021/07/19 12:06:27;;;;;;;17.40;15.67;;;23.10;99.90;;;;;;5053715;28;20423;-77
2021/07/19 12:09:03;;;;;;;17.10;15.30;;;23.30;99.90;;;;;;5053828;28;20477;-78
2021/07/19 12:11:30;;;;;;;22.27;16.07;;;23.30;99.90;;;;;;5053938;28;20423;-78
2021/07/19 12:14:03;;;;;;;25.17;14.17;;;23.40;99.90;;;;;;5052007;28;20474;-77
2021/07/19 12:16:34;;;;;;;15.73;12.63;;;23.70;99.90;;;;;;5069196;28;20416;-77
2021/07/19 12:18:59;;;;;;;15.50;12.53;;;23.50;99.90;;;;;;5053569;28;20473;-79
2021/07/19 12:21:31;;;;;;;20.07;13.23;;;23.40;99.90;;;;;;5053568;28;20498;-77
2021/07/19 12:23:59;;;;;;;14.07;12.57;;;23.10;99.90;;;;;;5053385;28;20232;-78
2021/07/19 12:26:30;;;;;;;14.93;12.13;;;23.30;99.90;;;;;;5053687;28;20416;-77
2021/07/19 12:28:59;;;;;;;16.70;12.80;;;23.00;99.90;;;;;;5051971;28;20932;-79
2021/07/19 12:31:31;;;;;;;16.07;14.40;;;23.00;99.90;;;;;;5053382;28;20776;-79
2021/07/19 12:34:17;;;;;;;18.40;14.13;;;;;;;;;;5053180;28;20463;-77
2021/07/19 12:36:46;;;;;;;15.93;14.30;;;;;;;;;;5053377;28;20803;-79
2021/07/19 12:39:14;;;;;;;18.60;15.50;;;;;;;;;;5053202;28;20400;-79
2021/07/19 12:41:40;;;;;;;21.17;17.30;;;;;;;;;;5052082;28;20431;-79
2021/07/19 12:44:07;;;;;;;17.47;15.60;;;;;;;;;;5051865;28;20414;-79
2021/07/19 12:46:40;;;;;;;18.97;16.43;;;;;;;;;;5053215;28;20481;-79
2021/07/19 12:49:06;;;;;;;19.87;17.60;;;;;;;;;;5053232;28;20765;-79
2021/07/19 12:51:33;;;;;;;28.40;19.40;;;;;;;;;;5053494;28;20426;-79
2021/07/19 12:54:00;;;;;;;23.70;21.30;;;;;;;;;;5052776;28;20490;-79
2021/07/19 12:56:27;;;;;;;23.43;19.53;;;;;;;;;;5053347;28;20446;-79
2021/07/19 12:58:57;;;;;;;23.40;18.77;;;;;;;;;;5053251;28;20426;-79
2021/07/19 13:01:44;;;;;;;20.73;18.40;;;;;;;;;;5053110;28;20404;-79
2021/07/19 13:04:14;;;;;;;22.53;19.40;;;;;;;;;;5052836;28;20862;-79
2021/07/19 13:06:42;;;;;;;21.90;19.27;;;;;;;;;;5053062;28;20417;-79
2021/07/19 13:09:09;;;;;;;33.07;20.77;;;;;;;;;;5052967;28;20423;-78
2021/07/19 13:11:37;;;;;;;20.10;18.00;;;;;;;;;;5051543;28;20427;-77
2021/07/19 13:14:14;;;;;;;21.77;19.40;;;;;;;;;;5051214;28;20944;-79
2021/07/19 13:16:41;;;;;;;21.27;18.60;;;;;;;;;;5053113;28;20768;-79
2021/07/19 13:19:07;;;;;;;20.50;18.33;;;;;;;;;;5051656;28;20420;-79
2021/07/19 13:21:33;;;;;;;21.80;19.50;;;;;;;;;;5052666;28;20438;-79
2021/07/19 13:24:00;;;;;;;22.30;19.47;;;;;;;;;;5052358;28;20458;-79
2021/07/19 13:26:31;;;;;;;20.57;18.47;;;;;;;;;;5052746;28;20435;-79
2021/07/19 13:29:04;;;;;;;21.27;17.80;;;;;;;;;;5057036;28;20412;-79
2021/07/19 13:31:30;;;;;;;25.53;18.90;;;;;;;;;;5056806;28;20422;-79
2021/07/19 13:33:56;;;;;;;24.70;19.83;;;;;;;;;;5056220;28;20463;-79
2021/07/19 13:36:30;;;;;;;25.97;20.00;;;;;;;;;;5056703;28;20440;-79
2021/07/19 13:38:55;;;;;;;21.30;19.10;;;;;;;;;;5056719;28;20411;-79